Mitchell, SD (57301)

3:40 PM CST on February 14, 2016 (GMT -0600)
Pleasant Hills | | Change Station
CLOSE
Current Station
Personal Weather Station
Location: Mitchell, SD
Elevation: 1285 ft
Nearby Weather Stations

Elev 1285 ft 43.73 °N, 98.01 °W | Updated 45 seconds ago

Overcast
Overcast
31.8 °F
Feels Like 32 °F
N
0.0
Wind Variable Wind from West
Gusts 0.0 mph

Today
High -- | Low -- °F
--% Chance of Precip.
Yesterday
High -- | Low -- °F
Precip. -- in
Pressure 29.86 in
Visibility 10.0 miles
Clouds Overcast 2500 ft
Windchill 32 °F
Dew Point 24 °F
Humidity 72%
Rainfall 0.00 in
Snow Depth Not available.
7:32 AM 6:00 PM
Waxing Crescent, 45% visible
METAR KMHE 142053Z AUTO 20004KT 10SM OVC025 M02/M05 A2979 RMK AO2 SLP109 T10221050 58013
Pressure 29.86 in
Visibility 10.0 miles
Clouds Overcast 2500 ft
Windchill 32 °F
Dew Point 24 °F
Humidity 72%
Rainfall 0.00 in
Snow Depth Not available.
7:32 AM 6:00 PM
Waxing Crescent, 45% visible
METAR KMHE 142053Z AUTO 20004KT 10SM OVC025 M02/M05 A2979 RMK AO2 SLP109 T10221050 58013

10-Day Weather Forecast

Almanac

Astronomy

Feb. 14, 2016 Rise Set
Actual Time
Civil Twilight
Nautical Twilight
Astronomical Twilight
Moon
Length of Visible Light
Length of Day
Tomorrow will be .
, % of the Moon is Illuminated

Today's Extremes

State Highs State Lows

Community

WunderPhotos

Upload Photos

1,892,890 photos uploaded!

WunderBlog® & News

Nearby

Air Quality

  Air Quality AQ Index Pollutant
Not available.

Snow Depth

Station Depth Elevation

Earthquake Activity

City Distance Mag. Time & Date
Minimum magnitude displayed is 2.5.

Coastal Water Temperatures

Place Temperature

Stations

Nearby Weather Stations

Station Location Temp. Windchill Dew Point Humidity Wind Precip. Elev Updated Type
                   

Watches & Warnings

There are currently no watches in effect.